sensor_id;sensor_type;location;lat;lon;timestamp;P1;durP1;ratioP1;P2;durP2;ratioP2
41059;SDS011;26811;53.160;8.202;2022-07-12T00:03:27;3.47;;;1.90;;
41059;SDS011;26811;53.160;8.202;2022-07-12T00:08:28;2.85;;;2.17;;
41059;SDS011;26811;53.160;8.202;2022-07-12T00:13:28;2.03;;;1.83;;
41059;SDS011;26811;53.160;8.202;2022-07-12T00:18:30;2.38;;;2.13;;
41059;SDS011;26811;53.160;8.202;2022-07-12T00:23:30;2.22;;;1.92;;
41059;SDS011;26811;53.160;8.202;2022-07-12T00:28:31;4.53;;;2.05;;
41059;SDS011;26811;53.160;8.202;2022-07-12T00:33:32;2.63;;;2.35;;
41059;SDS011;26811;53.160;8.202;2022-07-12T00:38:32;2.33;;;2.13;;
41059;SDS011;26811;53.160;8.202;2022-07-12T00:43:33;5.93;;;2.47;;
41059;SDS011;26811;53.160;8.202;2022-07-12T00:48:34;5.30;;;2.40;;
41059;SDS011;26811;53.160;8.202;2022-07-12T00:53:35;2.22;;;2.10;;
41059;SDS011;26811;53.160;8.202;2022-07-12T00:58:36;3.65;;;2.42;;
41059;SDS011;26811;53.160;8.202;2022-07-12T01:03:37;2.70;;;2.35;;
41059;SDS011;26811;53.160;8.202;2022-07-12T01:08:38;3.15;;;2.20;;
41059;SDS011;26811;53.160;8.202;2022-07-12T01:13:40;4.20;;;2.93;;
41059;SDS011;26811;53.160;8.202;2022-07-12T01:18:40;4.07;;;2.95;;
41059;SDS011;26811;53.160;8.202;2022-07-12T01:23:42;6.65;;;3.72;;
41059;SDS011;26811;53.160;8.202;2022-07-12T01:28:44;3.00;;;2.70;;
41059;SDS011;26811;53.160;8.202;2022-07-12T01:33:45;2.17;;;2.03;;
41059;SDS011;26811;53.160;8.202;2022-07-12T01:38:46;5.05;;;2.47;;
41059;SDS011;26811;53.160;8.202;2022-07-12T01:43:46;4.15;;;2.90;;
41059;SDS011;26811;53.160;8.202;2022-07-12T01:48:47;3.15;;;2.53;;
41059;SDS011;26811;53.160;8.202;2022-07-12T01:53:48;2.60;;;2.40;;
41059;SDS011;26811;53.160;8.202;2022-07-12T01:58:48;2.88;;;2.40;;
41059;SDS011;26811;53.160;8.202;2022-07-12T02:03:49;4.10;;;2.40;;
41059;SDS011;26811;53.160;8.202;2022-07-12T02:08:50;2.55;;;2.35;;
41059;SDS011;26811;53.160;8.202;2022-07-12T02:13:50;2.78;;;2.17;;
41059;SDS011;26811;53.160;8.202;2022-07-12T02:18:51;2.25;;;1.98;;
41059;SDS011;26811;53.160;8.202;2022-07-12T02:23:51;2.40;;;2.25;;
41059;SDS011;26811;53.160;8.202;2022-07-12T02:28:52;3.42;;;2.40;;
41059;SDS011;26811;53.160;8.202;2022-07-12T02:33:52;5.35;;;2.75;;
41059;SDS011;26811;53.160;8.202;2022-07-12T02:38:53;2.88;;;2.40;;
41059;SDS011;26811;53.160;8.202;2022-07-12T02:43:54;2.90;;;2.63;;
41059;SDS011;26811;53.160;8.202;2022-07-12T02:48:54;2.72;;;2.30;;
41059;SDS011;26811;53.160;8.202;2022-07-12T02:53:55;2.50;;;2.30;;
41059;SDS011;26811;53.160;8.202;2022-07-12T02:58:55;2.50;;;2.30;;
41059;SDS011;26811;53.160;8.202;2022-07-12T03:03:56;2.60;;;2.40;;
41059;SDS011;26811;53.160;8.202;2022-07-12T03:08:57;2.50;;;2.30;;
41059;SDS011;26811;53.160;8.202;2022-07-12T03:13:57;2.97;;;2.65;;
41059;SDS011;26811;53.160;8.202;2022-07-12T03:18:58;4.30;;;2.88;;
41059;SDS011;26811;53.160;8.202;2022-07-12T03:23:58;2.88;;;2.67;;
41059;SDS011;26811;53.160;8.202;2022-07-12T03:28:59;5.35;;;3.08;;
41059;SDS011;26811;53.160;8.202;2022-07-12T03:34:02;3.45;;;3.15;;
41059;SDS011;26811;53.160;8.202;2022-07-12T03:39:03;3.22;;;2.92;;
41059;SDS011;26811;53.160;8.202;2022-07-12T03:44:04;4.35;;;2.95;;
41059;SDS011;26811;53.160;8.202;2022-07-12T03:49:05;3.38;;;3.08;;
41059;SDS011;26811;53.160;8.202;2022-07-12T03:54:06;3.65;;;2.95;;
41059;SDS011;26811;53.160;8.202;2022-07-12T03:59:10;4.22;;;3.00;;
41059;SDS011;26811;53.160;8.202;2022-07-12T04:04:10;4.30;;;2.75;;
41059;SDS011;26811;53.160;8.202;2022-07-12T04:09:11;3.40;;;3.10;;
41059;SDS011;26811;53.160;8.202;2022-07-12T04:14:12;3.25;;;2.95;;
41059;SDS011;26811;53.160;8.202;2022-07-12T04:19:13;4.05;;;2.90;;
41059;SDS011;26811;53.160;8.202;2022-07-12T04:24:13;3.50;;;2.60;;
41059;SDS011;26811;53.160;8.202;2022-07-12T04:29:15;4.13;;;2.83;;
41059;SDS011;26811;53.160;8.202;2022-07-12T04:34:16;4.93;;;3.47;;
41059;SDS011;26811;53.160;8.202;2022-07-12T04:39:17;4.85;;;3.50;;
41059;SDS011;26811;53.160;8.202;2022-07-12T04:44:17;8.13;;;4.05;;
41059;SDS011;26811;53.160;8.202;2022-07-12T04:49:18;5.80;;;4.30;;
41059;SDS011;26811;53.160;8.202;2022-07-12T04:54:18;5.72;;;3.83;;
41059;SDS011;26811;53.160;8.202;2022-07-12T04:59:19;3.95;;;3.55;;
41059;SDS011;26811;53.160;8.202;2022-07-12T05:04:19;4.15;;;3.70;;
41059;SDS011;26811;53.160;8.202;2022-07-12T05:09:20;5.20;;;3.72;;
41059;SDS011;26811;53.160;8.202;2022-07-12T05:14:21;4.00;;;3.58;;
41059;SDS011;26811;53.160;8.202;2022-07-12T05:19:21;5.82;;;3.80;;
41059;SDS011;26811;53.160;8.202;2022-07-12T05:24:22;3.60;;;3.00;;
41059;SDS011;26811;53.160;8.202;2022-07-12T05:29:23;6.07;;;3.42;;
41059;SDS011;26811;53.160;8.202;2022-07-12T05:34:24;4.18;;;3.25;;
41059;SDS011;26811;53.160;8.202;2022-07-12T05:39:25;3.30;;;2.92;;
41059;SDS011;26811;53.160;8.202;2022-07-12T05:44:25;6.53;;;3.60;;
41059;SDS011;26811;53.160;8.202;2022-07-12T05:49:26;4.53;;;3.35;;
41059;SDS011;26811;53.160;8.202;2022-07-12T05:54:26;5.82;;;3.55;;
41059;SDS011;26811;53.160;8.202;2022-07-12T05:59:27;6.10;;;3.92;;
41059;SDS011;26811;53.160;8.202;2022-07-12T06:04:29;4.23;;;3.40;;
41059;SDS011;26811;53.160;8.202;2022-07-12T06:09:29;5.22;;;3.13;;
41059;SDS011;26811;53.160;8.202;2022-07-12T06:14:30;3.70;;;3.40;;
41059;SDS011;26811;53.160;8.202;2022-07-12T06:19:30;3.03;;;2.80;;
41059;SDS011;26811;53.160;8.202;2022-07-12T06:24:31;4.22;;;2.70;;
41059;SDS011;26811;53.160;8.202;2022-07-12T06:29:31;4.95;;;2.95;;
41059;SDS011;26811;53.160;8.202;2022-07-12T06:34:32;3.42;;;3.13;;
41059;SDS011;26811;53.160;8.202;2022-07-12T06:39:37;4.55;;;2.90;;
41059;SDS011;26811;53.160;8.202;2022-07-12T06:49:40;4.80;;;3.15;;
41059;SDS011;26811;53.160;8.202;2022-07-12T06:54:41;3.45;;;3.10;;
41059;SDS011;26811;53.160;8.202;2022-07-12T06:59:41;4.88;;;3.00;;
41059;SDS011;26811;53.160;8.202;2022-07-12T07:04:42;4.43;;;3.88;;
41059;SDS011;26811;53.160;8.202;2022-07-12T07:09:43;4.28;;;3.80;;
41059;SDS011;26811;53.160;8.202;2022-07-12T07:14:43;4.47;;;4.07;;
41059;SDS011;26811;53.160;8.202;2022-07-12T07:20:09;6.82;;;4.72;;
41059;SDS011;26811;53.160;8.202;2022-07-12T07:25:10;8.52;;;5.10;;
41059;SDS011;26811;53.160;8.202;2022-07-12T07:30:11;5.82;;;4.75;;
41059;SDS011;26811;53.160;8.202;2022-07-12T07:35:30;6.85;;;5.50;;
41059;SDS011;26811;53.160;8.202;2022-07-12T07:40:31;6.95;;;5.30;;
41059;SDS011;26811;53.160;8.202;2022-07-12T07:45:31;7.75;;;5.75;;
41059;SDS011;26811;53.160;8.202;2022-07-12T07:50:32;7.72;;;5.15;;
41059;SDS011;26811;53.160;8.202;2022-07-12T07:55:32;6.50;;;4.60;;
41059;SDS011;26811;53.160;8.202;2022-07-12T08:00:33;6.00;;;4.72;;
41059;SDS011;26811;53.160;8.202;2022-07-12T08:05:34;7.90;;;4.57;;
41059;SDS011;26811;53.160;8.202;2022-07-12T08:10:34;7.32;;;4.90;;
41059;SDS011;26811;53.160;8.202;2022-07-12T08:15:35;7.78;;;4.30;;
41059;SDS011;26811;53.160;8.202;2022-07-12T08:20:35;6.07;;;4.53;;
41059;SDS011;26811;53.160;8.202;2022-07-12T08:25:36;8.07;;;4.80;;
41059;SDS011;26811;53.160;8.202;2022-07-12T08:30:37;6.40;;;4.63;;
41059;SDS011;26811;53.160;8.202;2022-07-12T08:35:37;6.13;;;4.30;;
41059;SDS011;26811;53.160;8.202;2022-07-12T08:40:38;7.30;;;4.43;;
41059;SDS011;26811;53.160;8.202;2022-07-12T08:45:38;6.93;;;4.30;;
41059;SDS011;26811;53.160;8.202;2022-07-12T08:50:40;4.80;;;3.00;;
41059;SDS011;26811;53.160;8.202;2022-07-12T08:55:41;4.93;;;3.70;;
41059;SDS011;26811;53.160;8.202;2022-07-12T09:00:41;6.03;;;3.30;;
41059;SDS011;26811;53.160;8.202;2022-07-12T09:05:55;5.63;;;3.20;;
41059;SDS011;26811;53.160;8.202;2022-07-12T09:11:01;5.55;;;3.88;;
41059;SDS011;26811;53.160;8.202;2022-07-12T09:16:13;7.18;;;3.58;;
41059;SDS011;26811;53.160;8.202;2022-07-12T09:21:28;7.85;;;4.10;;
41059;SDS011;26811;53.160;8.202;2022-07-12T09:26:30;7.78;;;4.10;;
41059;SDS011;26811;53.160;8.202;2022-07-12T09:31:52;7.13;;;4.60;;
41059;SDS011;26811;53.160;8.202;2022-07-12T09:37:12;7.97;;;3.95;;
41059;SDS011;26811;53.160;8.202;2022-07-12T09:42:12;4.83;;;3.97;;
41059;SDS011;26811;53.160;8.202;2022-07-12T09:47:14;8.00;;;4.45;;
41059;SDS011;26811;53.160;8.202;2022-07-12T09:52:22;7.53;;;4.18;;
41059;SDS011;26811;53.160;8.202;2022-07-12T09:57:31;5.45;;;4.55;;
41059;SDS011;26811;53.160;8.202;2022-07-12T10:02:32;8.02;;;5.25;;
41059;SDS011;26811;53.160;8.202;2022-07-12T10:07:35;7.75;;;4.40;;
41059;SDS011;26811;53.160;8.202;2022-07-12T10:12:37;7.18;;;4.20;;
41059;SDS011;26811;53.160;8.202;2022-07-12T10:17:40;5.40;;;4.03;;
41059;SDS011;26811;53.160;8.202;2022-07-12T10:22:44;9.13;;;3.67;;
41059;SDS011;26811;53.160;8.202;2022-07-12T10:27:48;3.05;;;2.58;;
41059;SDS011;26811;53.160;8.202;2022-07-12T10:32:53;6.13;;;2.97;;
41059;SDS011;26811;53.160;8.202;2022-07-12T10:38:13;2.60;;;2.40;;
41059;SDS011;26811;53.160;8.202;2022-07-12T10:43:16;4.82;;;2.72;;
41059;SDS011;26811;53.160;8.202;2022-07-12T10:48:22;3.63;;;2.17;;
41059;SDS011;26811;53.160;8.202;2022-07-12T10:58:34;7.30;;;1.93;;
41059;SDS011;26811;53.160;8.202;2022-07-12T11:03:37;6.97;;;2.15;;
41059;SDS011;26811;53.160;8.202;2022-07-12T11:13:49;5.82;;;2.20;;
41059;SDS011;26811;53.160;8.202;2022-07-12T11:18:50;3.45;;;1.92;;
41059;SDS011;26811;53.160;8.202;2022-07-12T11:23:52;3.63;;;1.73;;
41059;SDS011;26811;53.160;8.202;2022-07-12T11:28:55;2.60;;;1.53;;
41059;SDS011;26811;53.160;8.202;2022-07-12T11:33:57;4.13;;;1.20;;
41059;SDS011;26811;53.160;8.202;2022-07-12T11:38:58;3.70;;;0.80;;
41059;SDS011;26811;53.160;8.202;2022-07-12T11:43:58;1.33;;;0.60;;
41059;SDS011;26811;53.160;8.202;2022-07-12T11:48:59;2.83;;;0.80;;
41059;SDS011;26811;53.160;8.202;2022-07-12T11:53:59;2.67;;;1.30;;
41059;SDS011;26811;53.160;8.202;2022-07-12T11:59:00;2.30;;;1.00;;
41059;SDS011;26811;53.160;8.202;2022-07-12T12:04:00;2.00;;;1.07;;
41059;SDS011;26811;53.160;8.202;2022-07-12T12:09:04;2.87;;;0.67;;
41059;SDS011;26811;53.160;8.202;2022-07-12T12:14:05;0.85;;;0.63;;
41059;SDS011;26811;53.160;8.202;2022-07-12T12:19:10;1.30;;;0.70;;
41059;SDS011;26811;53.160;8.202;2022-07-12T12:24:11;5.97;;;1.02;;
41059;SDS011;26811;53.160;8.202;2022-07-12T12:29:12;3.35;;;1.10;;
41059;SDS011;26811;53.160;8.202;2022-07-12T12:34:13;4.13;;;1.20;;
41059;SDS011;26811;53.160;8.202;2022-07-12T12:39:28;3.15;;;1.20;;
41059;SDS011;26811;53.160;8.202;2022-07-12T12:44:29;2.50;;;1.20;;
41059;SDS011;26811;53.160;8.202;2022-07-12T12:49:45;1.58;;;1.20;;
41059;SDS011;26811;53.160;8.202;2022-07-12T12:59:56;2.80;;;1.23;;
41059;SDS011;26811;53.160;8.202;2022-07-12T13:04:57;3.50;;;1.30;;
41059;SDS011;26811;53.160;8.202;2022-07-12T13:09:57;2.10;;;1.10;;
41059;SDS011;26811;53.160;8.202;2022-07-12T13:14:58;3.53;;;1.23;;
41059;SDS011;26811;53.160;8.202;2022-07-12T13:19:58;3.53;;;1.60;;
41059;SDS011;26811;53.160;8.202;2022-07-12T13:24:59;2.80;;;1.60;;
41059;SDS011;26811;53.160;8.202;2022-07-12T13:30:00;5.57;;;1.65;;
41059;SDS011;26811;53.160;8.202;2022-07-12T13:35:01;5.60;;;1.80;;
41059;SDS011;26811;53.160;8.202;2022-07-12T13:40:03;7.00;;;2.20;;
41059;SDS011;26811;53.160;8.202;2022-07-12T13:45:20;3.00;;;1.90;;
41059;SDS011;26811;53.160;8.202;2022-07-12T13:50:22;2.08;;;1.88;;
41059;SDS011;26811;53.160;8.202;2022-07-12T13:55:25;6.43;;;2.23;;
41059;SDS011;26811;53.160;8.202;2022-07-12T14:00:26;3.97;;;2.60;;
41059;SDS011;26811;53.160;8.202;2022-07-12T14:05:26;5.17;;;2.67;;
41059;SDS011;26811;53.160;8.202;2022-07-12T14:10:27;3.40;;;2.50;;
41059;SDS011;26811;53.160;8.202;2022-07-12T14:15:28;3.87;;;2.83;;
41059;SDS011;26811;53.160;8.202;2022-07-12T14:20:37;10.50;;;2.70;;
41059;SDS011;26811;53.160;8.202;2022-07-12T14:25:38;2.93;;;2.60;;
41059;SDS011;26811;53.160;8.202;2022-07-12T14:30:39;8.47;;;3.13;;
41059;SDS011;26811;53.160;8.202;2022-07-12T14:35:39;3.67;;;3.30;;
41059;SDS011;26811;53.160;8.202;2022-07-12T14:40:40;6.17;;;2.80;;
41059;SDS011;26811;53.160;8.202;2022-07-12T14:45:40;5.43;;;2.73;;
41059;SDS011;26811;53.160;8.202;2022-07-12T14:50:42;4.65;;;2.70;;
41059;SDS011;26811;53.160;8.202;2022-07-12T14:55:43;3.97;;;2.77;;
41059;SDS011;26811;53.160;8.202;2022-07-12T15:00:43;3.87;;;2.70;;
41059;SDS011;26811;53.160;8.202;2022-07-12T15:05:44;5.33;;;2.70;;
41059;SDS011;26811;53.160;8.202;2022-07-12T15:15:46;5.18;;;2.25;;
41059;SDS011;26811;53.160;8.202;2022-07-12T15:20:46;3.00;;;2.43;;
41059;SDS011;26811;53.160;8.202;2022-07-12T15:25:47;3.63;;;2.37;;
41059;SDS011;26811;53.160;8.202;2022-07-12T15:30:48;3.93;;;2.60;;
41059;SDS011;26811;53.160;8.202;2022-07-12T15:35:48;9.73;;;2.80;;
41059;SDS011;26811;53.160;8.202;2022-07-12T15:40:49;3.60;;;2.40;;
41059;SDS011;26811;53.160;8.202;2022-07-12T15:45:51;5.53;;;2.67;;
41059;SDS011;26811;53.160;8.202;2022-07-12T15:50:51;8.17;;;2.50;;
41059;SDS011;26811;53.160;8.202;2022-07-12T15:55:52;4.37;;;2.50;;
41059;SDS011;26811;53.160;8.202;2022-07-12T16:01:04;5.22;;;2.17;;
41059;SDS011;26811;53.160;8.202;2022-07-12T16:06:05;4.20;;;2.20;;
41059;SDS011;26811;53.160;8.202;2022-07-12T16:11:06;6.93;;;2.20;;
41059;SDS011;26811;53.160;8.202;2022-07-12T16:16:06;7.70;;;2.33;;
41059;SDS011;26811;53.160;8.202;2022-07-12T16:21:07;2.60;;;2.20;;
41059;SDS011;26811;53.160;8.202;2022-07-12T16:26:08;3.60;;;2.03;;
41059;SDS011;26811;53.160;8.202;2022-07-12T16:31:08;5.33;;;2.00;;
41059;SDS011;26811;53.160;8.202;2022-07-12T16:36:09;5.23;;;2.30;;
41059;SDS011;26811;53.160;8.202;2022-07-12T16:41:10;3.80;;;2.07;;
41059;SDS011;26811;53.160;8.202;2022-07-12T16:46:10;3.27;;;2.43;;
41059;SDS011;26811;53.160;8.202;2022-07-12T16:51:11;12.23;;;2.83;;
41059;SDS011;26811;53.160;8.202;2022-07-12T16:56:30;2.65;;;2.45;;
41059;SDS011;26811;53.160;8.202;2022-07-12T17:01:31;2.95;;;2.33;;
41059;SDS011;26811;53.160;8.202;2022-07-12T17:06:32;2.90;;;2.33;;
41059;SDS011;26811;53.160;8.202;2022-07-12T17:11:33;6.18;;;2.50;;
41059;SDS011;26811;53.160;8.202;2022-07-12T17:16:34;4.77;;;2.57;;
41059;SDS011;26811;53.160;8.202;2022-07-12T17:21:35;7.73;;;2.70;;
41059;SDS011;26811;53.160;8.202;2022-07-12T17:26:36;9.57;;;2.90;;
41059;SDS011;26811;53.160;8.202;2022-07-12T17:31:37;4.68;;;2.47;;
41059;SDS011;26811;53.160;8.202;2022-07-12T17:36:38;5.60;;;2.47;;
41059;SDS011;26811;53.160;8.202;2022-07-12T17:41:38;2.70;;;2.30;;
41059;SDS011;26811;53.160;8.202;2022-07-12T17:46:39;4.90;;;2.33;;
41059;SDS011;26811;53.160;8.202;2022-07-12T17:51:40;4.87;;;2.43;;
41059;SDS011;26811;53.160;8.202;2022-07-12T17:56:40;14.63;;;2.90;;
41059;SDS011;26811;53.160;8.202;2022-07-12T18:01:41;4.53;;;2.23;;
41059;SDS011;26811;53.160;8.202;2022-07-12T18:06:42;11.40;;;2.50;;
41059;SDS011;26811;53.160;8.202;2022-07-12T18:11:44;4.72;;;2.60;;
41059;SDS011;26811;53.160;8.202;2022-07-12T18:17:03;3.75;;;2.60;;
41059;SDS011;26811;53.160;8.202;2022-07-12T18:22:22;5.25;;;2.53;;
41059;SDS011;26811;53.160;8.202;2022-07-12T18:27:23;5.57;;;2.70;;
41059;SDS011;26811;53.160;8.202;2022-07-12T18:32:24;12.53;;;3.30;;
41059;SDS011;26811;53.160;8.202;2022-07-12T18:37:24;3.37;;;3.00;;
41059;SDS011;26811;53.160;8.202;2022-07-12T18:42:26;5.15;;;2.97;;
41059;SDS011;26811;53.160;8.202;2022-07-12T18:47:26;4.13;;;2.50;;
41059;SDS011;26811;53.160;8.202;2022-07-12T18:52:29;5.78;;;3.03;;
41059;SDS011;26811;53.160;8.202;2022-07-12T18:57:30;5.60;;;2.90;;
41059;SDS011;26811;53.160;8.202;2022-07-12T19:02:30;4.85;;;3.08;;
41059;SDS011;26811;53.160;8.202;2022-07-12T19:07:31;7.18;;;3.60;;
41059;SDS011;26811;53.160;8.202;2022-07-12T19:12:31;5.20;;;2.85;;
41059;SDS011;26811;53.160;8.202;2022-07-12T19:17:34;7.75;;;3.20;;
41059;SDS011;26811;53.160;8.202;2022-07-12T19:22:35;6.03;;;3.08;;
41059;SDS011;26811;53.160;8.202;2022-07-12T19:27:36;6.40;;;3.33;;
41059;SDS011;26811;53.160;8.202;2022-07-12T19:32:37;5.68;;;3.72;;
41059;SDS011;26811;53.160;8.202;2022-07-12T19:37:37;8.52;;;3.17;;
41059;SDS011;26811;53.160;8.202;2022-07-12T19:42:38;9.15;;;3.97;;
41059;SDS011;26811;53.160;8.202;2022-07-12T19:47:40;8.77;;;3.80;;
41059;SDS011;26811;53.160;8.202;2022-07-12T19:52:40;9.70;;;3.70;;
41059;SDS011;26811;53.160;8.202;2022-07-12T19:57:41;7.43;;;3.72;;
41059;SDS011;26811;53.160;8.202;2022-07-12T20:02:41;8.57;;;4.10;;
41059;SDS011;26811;53.160;8.202;2022-07-12T20:07:42;9.68;;;4.55;;
41059;SDS011;26811;53.160;8.202;2022-07-12T20:12:42;13.45;;;4.82;;
41059;SDS011;26811;53.160;8.202;2022-07-12T20:17:43;8.98;;;4.97;;
41059;SDS011;26811;53.160;8.202;2022-07-12T20:22:44;9.68;;;4.55;;
41059;SDS011;26811;53.160;8.202;2022-07-12T20:27:44;10.18;;;4.88;;
41059;SDS011;26811;53.160;8.202;2022-07-12T20:32:45;13.35;;;4.85;;
41059;SDS011;26811;53.160;8.202;2022-07-12T20:38:07;11.57;;;5.32;;
41059;SDS011;26811;53.160;8.202;2022-07-12T20:43:08;21.65;;;8.38;;
41059;SDS011;26811;53.160;8.202;2022-07-12T20:48:09;63.17;;;19.05;;
41059;SDS011;26811;53.160;8.202;2022-07-12T20:53:10;32.63;;;12.07;;
41059;SDS011;26811;53.160;8.202;2022-07-12T20:58:10;17.83;;;7.47;;
41059;SDS011;26811;53.160;8.202;2022-07-12T21:03:12;14.97;;;5.53;;
41059;SDS011;26811;53.160;8.202;2022-07-12T21:08:13;14.25;;;5.63;;
41059;SDS011;26811;53.160;8.202;2022-07-12T21:13:13;12.90;;;5.28;;
41059;SDS011;26811;53.160;8.202;2022-07-12T21:18:14;8.57;;;4.88;;
41059;SDS011;26811;53.160;8.202;2022-07-12T21:23:15;9.45;;;4.85;;
41059;SDS011;26811;53.160;8.202;2022-07-12T21:28:16;9.80;;;4.45;;
41059;SDS011;26811;53.160;8.202;2022-07-12T21:33:16;8.25;;;4.22;;
41059;SDS011;26811;53.160;8.202;2022-07-12T21:38:17;7.20;;;4.50;;
41059;SDS011;26811;53.160;8.202;2022-07-12T21:43:18;7.82;;;4.20;;
41059;SDS011;26811;53.160;8.202;2022-07-12T21:48:18;7.78;;;4.43;;
41059;SDS011;26811;53.160;8.202;2022-07-12T21:53:19;8.27;;;4.00;;
41059;SDS011;26811;53.160;8.202;2022-07-12T21:58:19;5.68;;;3.90;;
41059;SDS011;26811;53.160;8.202;2022-07-12T22:03:20;11.80;;;5.40;;
41059;SDS011;26811;53.160;8.202;2022-07-12T22:08:20;15.80;;;5.18;;
41059;SDS011;26811;53.160;8.202;2022-07-12T22:13:21;8.88;;;3.90;;
41059;SDS011;26811;53.160;8.202;2022-07-12T22:18:22;8.40;;;4.82;;
41059;SDS011;26811;53.160;8.202;2022-07-12T22:23:22;10.70;;;4.28;;
41059;SDS011;26811;53.160;8.202;2022-07-12T22:28:24;5.60;;;4.18;;
41059;SDS011;26811;53.160;8.202;2022-07-12T22:38:26;6.90;;;3.90;;
41059;SDS011;26811;53.160;8.202;2022-07-12T22:43:27;5.22;;;3.60;;
41059;SDS011;26811;53.160;8.202;2022-07-12T22:48:27;10.02;;;4.32;;
41059;SDS011;26811;53.160;8.202;2022-07-12T22:53:29;8.10;;;4.07;;
41059;SDS011;26811;53.160;8.202;2022-07-12T23:03:32;9.10;;;4.20;;
41059;SDS011;26811;53.160;8.202;2022-07-12T23:08:32;9.18;;;3.67;;
41059;SDS011;26811;53.160;8.202;2022-07-12T23:13:34;10.83;;;3.60;;
41059;SDS011;26811;53.160;8.202;2022-07-12T23:18:34;8.02;;;3.70;;
41059;SDS011;26811;53.160;8.202;2022-07-12T23:23:35;5.72;;;3.50;;
41059;SDS011;26811;53.160;8.202;2022-07-12T23:28:35;8.13;;;4.30;;
41059;SDS011;26811;53.160;8.202;2022-07-12T23:33:37;6.83;;;4.03;;
41059;SDS011;26811;53.160;8.202;2022-07-12T23:38:37;5.25;;;3.60;;
41059;SDS011;26811;53.160;8.202;2022-07-12T23:43:38;5.10;;;3.63;;
41059;SDS011;26811;53.160;8.202;2022-07-12T23:48:38;6.95;;;3.67;;
41059;SDS011;26811;53.160;8.202;2022-07-12T23:53:39;8.93;;;4.32;;
41059;SDS011;26811;53.160;8.202;2022-07-12T23:58:40;11.80;;;4.40;;
